Latest Weather Observations for Gabo Island

IDN60801

Issued at 2:35 am EST Friday 3 October 2014 (issued every 30 minutes, with the page automatically refreshed every 10 minutes)

About weather observations | Map of weather stations | Latest weather observations for NSW | Other Formats
Station Details ID: 084016 Name: GABO ISLAND LIGHTHOUSE Lat: -37.57 Lon: 149.92 Height: 15.2 m
Data from the previous 72 hours. | See also: Recent months at Gabo Island
Date/Time
EST
Temp
°C
App
Temp
°C
Dew
Point
Rel
Hum
%
Delta-T
°C
Wind Press
QNH
hPa
Press
MSL
hPa
Rain
since 9 am
mm
Dir
 
Spd
km/h
Gust
km/h
Spd
kts
Gust
kts
03/02:30am 13.0 4.4 8.8 75 2.1 WSW 44 63 24 34 1019.5 - 0.0
03/02:29am 12.9 4.3 8.7 75 2.1 WSW 44 63 24 34 1019.5 - 0.0
03/02:00am 13.3 5.0 9.4 77 2.0 WSW 43 54 23 29 1019.5 - 0.0
03/01:30am 13.4 5.3 8.8 74 2.3 WSW 41 50 22 27 1019.9 - 0.0
03/01:00am 13.6 4.8 9.5 76 2.1 WSW 46 65 25 35 1020.0 - 0.0
03/12:36am 13.7 3.9 10.0 78 1.9 WSW 52 70 28 38 1020.1 - 0.0
03/12:30am 13.7 3.7 9.4 75 2.2 SW 52 67 28 36 1019.9 - 0.0
03/12:13am 14.1 6.9 9.0 71 2.6 WSW 37 56 20 30 1020.2 - 0.0
03/12:00am 13.6 5.9 8.8 73 2.4 WSW 39 52 21 28 1020.4 1020.4 0.0
 
Date/Time
EST
Temp
°C
App
Temp
°C
Dew
Point
Rel
Hum
%
Delta-T
°C
Wind Press
QNH
hPa
Press
MSL
hPa
Rain
since 9 am
mm
Dir
 
Spd
km/h
Gust
km/h
Spd
kts
Gust
kts
02/11:30pm 13.8 5.4 9.5 75 2.2 WSW 44 59 24 32 1020.1 - 0.0
02/11:00pm 13.9 5.2 9.8 76 2.1 WSW 46 56 25 30 1020.1 - 0.0
02/10:30pm 14.1 6.3 9.6 74 2.3 WSW 41 50 22 27 1020.1 - 0.0
02/10:00pm 14.0 5.2 9.7 75 2.2 WSW 46 59 25 32 1019.8 - 0.0
02/09:30pm 14.0 5.2 9.5 74 2.3 WSW 46 59 25 32 1019.8 - 0.0
02/09:00pm 14.2 6.8 9.9 75 2.2 WSW 39 54 21 29 1020.0 1020.0 0.0
02/08:30pm 14.3 5.9 9.6 73 2.4 WSW 44 56 24 30 1019.9 - 0.0
02/08:00pm 14.4 6.1 10.2 76 2.2 WSW 44 56 24 30 1019.5 - 0.0
02/07:30pm 14.4 5.7 10.0 75 2.3 WSW 46 59 25 32 1019.3 - 0.0
02/07:00pm 14.4 5.6 9.5 72 2.5 WSW 46 56 25 30 1019.3 - 0.0
02/06:30pm 14.6 6.3 9.5 71 2.6 WSW 43 52 23 28 1019.1 - 0.0
02/06:00pm 14.8 6.1 9.8 72 2.6 WSW 46 61 25 33 1018.6 1018.6 0.0
02/05:30pm 15.5 6.5 10.1 70 2.8 WSW 48 63 26 34 1018.3 - 0.0
02/05:00pm 15.5 6.5 10.1 70 2.8 WSW 48 57 26 31 1018.1 - 0.0
02/04:30pm 15.8 6.5 10.7 71 2.7 SW 50 61 27 33 1017.9 - 0.0
02/04:00pm 16.8 6.7 7.6 54 4.6 WSW 50 61 27 33 1017.7 - 0.0
02/03:46pm 17.0 5.5 6.4 49 5.2 WSW 56 78 30 42 1017.4 - 0.0
02/03:30pm 16.9 5.3 6.8 51 5.0 WSW 57 69 31 37 1017.2 - 0.0
02/03:00pm 17.2 5.3 6.9 50 5.1 WSW 59 76 32 41 1017.3 1017.4 0.0
02/02:45pm 17.4 6.9 7.2 51 5.1 WSW 52 74 28 40 1017.4 - 0.0
02/02:30pm 17.0 5.0 6.4 49 5.2 WSW 59 72 32 39 1017.3 - 0.0
02/02:00pm 17.1 6.8 8.0 55 4.6 WSW 52 63 28 34 1017.5 - 0.0
02/01:30pm 17.6 8.0 7.9 53 4.9 WSW 48 65 26 35 1017.8 - 0.0
02/01:00pm 17.5 7.4 7.6 52 5.0 WSW 50 63 27 34 1017.8 - 0.0
02/12:44pm 17.4 7.4 7.7 53 4.9 WSW 50 69 27 37 1017.9 - 0.0
02/12:30pm 17.3 8.0 7.5 52 4.9 WSW 46 59 25 32 1018.1 - 0.0
02/12:02pm 17.5 8.5 8.8 56 4.5 WSW 46 65 25 35 1018.3 - 0.0
02/12:00pm 17.2 8.0 7.9 54 4.7 WSW 46 65 25 35 1018.3 1018.3 0.0
02/11:59am 17.3 8.1 7.8 53 4.8 WSW 46 65 25 35 1018.3 - 0.0
02/11:00am 16.6 7.2 7.1 53 4.7 WSW 46 59 25 32 1018.7 - 0.0
02/10:30am 16.4 6.6 6.9 53 4.7 W 48 61 26 33 1018.8 - 0.0
02/10:00am 15.7 6.1 6.2 53 4.6 WSW 46 63 25 34 1019.4 - 0.0
02/09:57am 15.9 6.8 6.7 54 4.5 WSW 44 63 24 34 1019.4 - 0.0
02/09:30am 15.3 5.8 6.7 56 4.2 WSW 46 57 25 31 1019.5 - 0.0
02/09:00am 15.0 5.8 6.3 56 4.2 WSW 44 57 24 31 1019.3 1019.3 1.8
02/08:30am 14.6 5.6 6.3 57 4.0 W 43 57 23 31 1019.2 - 1.8
02/08:05am 14.0 5.6 5.5 56 4.0 W 39 57 21 31 1019.3 - 1.8
02/08:00am 13.9 5.0 5.1 55 4.1 W 41 57 22 31 1019.2 - 1.8
02/07:30am 13.3 4.3 4.6 55 4.0 W 41 54 22 29 1019.3 - 1.8
02/07:00am 12.5 3.4 4.1 56 3.8 W 41 56 22 30 1019.3 - 1.8
02/06:30am 12.1 4.2 4.3 59 3.5 W 35 44 19 24 1019.6 - 1.8
02/06:00am 11.5 3.4 5.2 65 2.9 W 37 44 20 24 1019.5 1019.5 1.8
02/05:30am 11.3 2.4 4.9 65 2.9 W 41 50 22 27 1019.4 - 1.8
02/05:00am 11.4 2.7 5.8 68 2.6 W 41 50 22 27 1019.5 - 1.8
02/04:30am 11.2 2.8 5.8 69 2.5 W 39 46 21 25 1019.7 - 1.8
02/04:00am 11.3 3.4 6.2 71 2.4 W 37 50 20 27 1019.6 - 1.8
02/03:30am 11.4 3.1 6.0 69 2.5 W 39 48 21 26 1020.0 - 1.8
02/03:00am 11.4 2.7 5.8 68 2.6 W 41 48 22 26 1019.9 1019.9 1.8
02/02:30am 11.8 2.7 5.8 66 2.8 W 43 52 23 28 1020.4 - 1.8
02/02:00am 11.7 3.3 5.7 66 2.8 W 39 48 21 26 1020.3 - 1.8
02/01:30am 11.9 2.6 5.1 63 3.1 W 43 54 23 29 1020.6 - 1.8
02/01:00am 11.7 2.9 5.4 65 2.9 W 41 50 22 27 1020.8 - 1.8
02/12:30am 11.8 2.9 5.3 64 3.0 W 41 56 22 30 1020.9 - 1.8
02/12:00am 11.8 3.5 6.0 67 2.7 W 39 50 21 27 1020.9 1020.9 1.8
 
Date/Time
EST
Temp
°C
App
Temp
°C
Dew
Point
Rel
Hum
%
Delta-T
°C
Wind Press
QNH
hPa
Press
MSL
hPa
Rain
since 9 am
mm
Dir
 
Spd
km/h
Gust
km/h
Spd
kts
Gust
kts
01/11:30pm 11.2 3.1 6.8 74 2.1 W 39 50 21 27 1021.0 - 1.8
01/11:00pm 11.5 3.7 6.6 72 2.3 W 37 48 20 26 1021.3 - 1.8
01/10:30pm 12.0 5.1 7.4 73 2.2 W 33 44 18 24 1021.6 - 1.8
01/10:00pm 12.0 5.2 7.7 75 2.1 W 33 41 18 22 1021.7 - 1.8
01/09:42pm 12.6 5.8 6.7 67 2.8 W 32 59 17 32 1022.0 - 1.8
01/09:30pm 13.2 2.9 6.7 64 3.1 WSW 50 61 27 33 1021.6 - 1.8
01/09:00pm 13.1 4.1 6.4 64 3.2 WSW 43 54 23 29 1021.6 1021.6 1.8
01/08:30pm 13.1 4.5 6.4 64 3.2 WSW 41 59 22 32 1021.3 - 1.8
01/08:00pm 13.0 5.1 6.0 62 3.3 WSW 37 46 20 25 1021.4 - 1.8
01/07:30pm 12.9 5.0 6.1 63 3.2 WSW 37 46 20 25 1021.1 - 1.8
01/07:00pm 12.8 4.8 5.5 61 3.4 WSW 37 48 20 26 1020.9 - 1.8
01/06:30pm 12.8 3.8 4.7 58 3.7 WSW 41 54 22 29 1020.5 - 1.8
01/06:00pm 12.8 3.3 5.0 59 3.6 WSW 44 56 24 30 1020.4 1020.4 1.8
01/05:30pm 13.0 2.6 4.4 56 3.9 WSW 48 63 26 34 1020.3 - 1.8
01/05:00pm 13.7 3.2 5.6 58 3.8 WSW 50 65 27 35 1020.1 - 1.8
01/04:30pm 13.7 2.3 4.8 55 4.1 WSW 54 65 29 35 1019.6 - 1.8
01/04:00pm 13.6 1.9 5.2 57 3.9 WSW 56 67 30 36 1019.3 - 1.8
01/03:30pm 13.8 2.7 6.3 60 3.6 WSW 54 70 29 38 1019.3 - 1.8
01/03:22pm 14.0 1.8 5.5 56 4.0 SW 59 78 32 42 1019.3 - 1.8
01/03:00pm 14.1 1.6 6.1 58 3.8 WSW 61 72 33 39 1019.2 1019.2 1.8
01/02:39pm 14.0 0.8 4.7 53 4.3 SW 63 82 34 44 1019.0 - 1.8
01/02:30pm 14.0 1.4 5.7 57 3.9 SW 61 76 33 41 1018.9 - 1.8
01/02:01pm 13.9 1.6 5.1 55 4.1 SW 59 78 32 42 1018.7 - 1.8
01/02:00pm 14.0 1.8 5.5 56 4.0 SW 59 72 32 39 1018.7 - 1.8
01/01:54pm 14.4 2.3 6.3 58 3.9 SW 59 78 32 42 1018.7 - 1.8
01/01:30pm 13.7 0.9 4.6 54 4.2 WSW 61 78 33 42 1018.6 - 1.8
01/01:07pm 13.5 1.5 6.4 62 3.4 SW 59 78 32 42 1018.6 - 1.8
01/01:00pm 13.8 2.1 6.0 59 3.7 WSW 57 74 31 40 1018.6 - 1.8
01/12:30pm 12.9 0.9 6.4 64 3.1 WSW 59 78 32 42 1018.6 - 1.8
01/12:00pm 11.4 -1.0 6.5 72 2.3 WSW 61 85 33 46 1018.7 1018.6 1.6
01/11:31am 12.6 1.3 7.0 68 2.7 WSW 56 74 30 40 1018.1 - 1.6
01/11:30am 12.3 0.7 6.6 68 2.7 WSW 57 74 31 40 1018.1 - 1.6
01/11:00am 11.9 0.6 7.3 73 2.2 WSW 56 76 30 41 1018.0 - 1.6
01/10:35am 11.5 1.8 7.6 77 1.9 WSW 48 72 26 39 1017.7 - 1.6
01/10:30am 11.0 1.7 7.5 79 1.7 WSW 46 57 25 31 1017.8 - 1.6
01/10:00am 11.5 0.2 7.3 75 2.0 WSW 56 82 30 44 1017.5 - 0.4
01/09:32am 10.1 -1.0 6.2 77 1.8 WSW 54 72 29 39 1017.1 - 0.2
01/09:30am 9.9 -1.7 6.0 77 1.8 WSW 56 72 30 39 1017.2 - 0.2
01/09:00am 9.6 -0.9 5.7 76 1.8 W 50 69 27 37 1016.7 1016.6 2.4
01/08:39am 9.4 -1.8 5.7 78 1.7 WSW 54 72 29 39 1016.5 - 2.4
01/08:30am 10.6 -0.9 6.1 74 2.1 W 56 70 30 38 1016.2 - 2.2
01/08:12am 9.2 -2.2 4.7 73 2.0 W 54 72 29 39 1015.9 - 2.2
01/08:00am 8.8 -1.8 5.2 78 1.6 W 50 65 27 35 1015.8 - 2.2
01/07:43am 8.7 -2.7 4.9 77 1.7 W 54 72 29 39 1015.4 - 2.0
01/07:30am 8.9 -3.4 5.1 77 1.7 W 59 74 32 40 1015.1 - 2.0
01/07:02am 8.7 -2.7 5.1 78 1.6 W 54 72 29 39 1014.6 - 2.0
01/07:00am 8.7 -2.3 4.9 77 1.7 W 52 65 28 35 1014.6 - 2.0
01/06:48am 8.8 -1.3 5.5 80 1.5 W 48 67 26 36 1014.5 - 2.0
01/06:30am 8.5 -3.2 5.4 81 1.4 W 56 69 30 37 1014.4 - 2.0
01/06:01am 8.0 -4.0 4.8 80 1.4 W 57 76 31 41 1013.8 - 2.0
01/06:00am 7.8 -4.2 4.6 80 1.4 W 57 76 31 41 1013.8 1013.7 2.0
01/05:30am 8.9 -4.3 6.1 82 1.3 WSW 65 83 35 45 1013.3 - 1.2
01/05:17am 10.1 -2.0 3.2 62 3.0 WSW 56 74 30 40 1012.7 - 1.0
01/05:00am 9.9 -1.8 3.2 63 2.9 W 54 67 29 36 1012.1 - 1.0
01/04:30am 9.9 -2.5 2.7 61 3.1 W 57 76 31 41 1011.4 - 1.0
01/04:00am 10.1 -2.3 2.6 59 3.2 W 57 76 31 41 1011.0 - 1.0
01/03:36am 10.1 -2.1 2.6 59 3.2 W 56 74 30 40 1010.9 - 1.0
01/03:30am 10.2 -1.6 2.8 60 3.2 W 54 69 29 37 1010.9 - 1.0
01/03:00am 10.6 -1.0 3.8 63 3.0 WSW 54 69 29 37 1010.5 1010.6 1.0
01/02:32am 10.5 -1.7 2.9 59 3.3 WSW 56 74 30 40 1010.2 - 1.0
01/02:30am 10.9 -0.8 3.4 60 3.3 WSW 54 69 29 37 1010.2 - 1.0
01/02:01am 10.7 -1.3 3.7 62 3.1 W 56 74 30 40 1009.9 - 1.0
01/02:00am 10.8 -1.4 3.8 62 3.1 W 57 74 31 40 1009.9 - 1.0
01/01:31am 10.8 -1.0 4.6 65 2.8 WSW 56 74 30 40 1009.5 - 1.0
01/01:30am 11.1 -0.2 5.2 67 2.7 WSW 54 69 29 37 1009.5 - 1.0
01/01:00am 10.3 -0.3 5.0 69 2.4 W 50 63 27 34 1009.7 - 1.0
01/12:30am 10.0 -0.7 4.7 69 2.4 W 50 63 27 34 1009.7 - 1.0
01/12:00am 10.2 0.4 5.1 70 2.3 W 46 59 25 32 1010.0 1010.2 1.0
 
Date/Time
EST
Temp
°C
App
Temp
°C
Dew
Point
Rel
Hum
%
Delta-T
°C
Wind Press
QNH
hPa
Press
MSL
hPa
Rain
since 9 am
mm
Dir
 
Spd
km/h
Gust
km/h
Spd
kts
Gust
kts
30/11:53pm 10.3 0.9 5.5 72 2.2 W 44 63 24 34 1010.2 - 1.0
30/11:30pm 9.7 1.0 5.8 77 1.8 W 41 50 22 27 1010.4 - 1.0
30/11:03pm 9.2 -0.4 6.4 83 1.3 W 46 65 25 35 1010.6 - 1.0
30/11:00pm 9.3 -0.6 6.5 83 1.3 W 48 65 26 35 1010.8 - 0.8
30/10:30pm 9.2 -1.0 6.9 85 1.1 W 50 61 27 33 1010.1 - 0.4
30/10:13pm 9.0 -2.7 6.2 82 1.3 WSW 57 80 31 43 1010.5 - 0.0
30/10:00pm 10.0 -1.5 7.3 83 1.3 WSW 57 72 31 39 1010.4 - 0.0
30/09:34pm 11.7 0.7 9.1 84 1.3 WSW 57 76 31 41 1010.7 - 0.0
30/09:30pm 11.8 -0.1 8.6 81 1.6 WSW 61 76 33 41 1010.5 - 0.0
30/09:00pm 12.2 0.9 8.1 76 2.0 WSW 57 69 31 37 1009.8 1009.8 0.0
30/08:30pm 12.6 -0.2 8.2 74 2.2 WSW 65 87 35 47 1008.7 - 0.0
30/08:28pm 12.7 0.0 8.3 74 2.2 WSW 65 87 35 47 1008.6 - 0.0
30/08:25pm 12.8 0.9 8.8 76 2.0 WSW 61 93 33 50 1008.6 - 0.0
30/08:00pm 13.3 -2.6 9.4 77 2.0 SW 83 111 45 60 1007.5 - 0.0
30/07:46pm 14.6 -0.8 11.0 79 1.9 SW 83 113 45 61 1006.3 - 0.0
30/07:45pm 14.8 0.0 11.2 79 1.9 SW 80 113 43 61 1006.4 - 0.0
30/07:30pm 15.3 -3.9 10.6 73 2.5 SW 102 128 55 69 1004.7 - 0.0
30/07:29pm 15.4 -4.2 10.5 72 2.6 SW 104 128 56 69 1004.2 - 0.0
30/07:28pm 15.6 0.6 10.5 71 2.7 SW 80 128 43 69 1004.2 - 0.0
30/07:26pm 16.2 2.5 9.9 66 3.3 SW 72 100 39 54 1004.9 - 0.0
30/07:24pm 21.9 10.5 4.7 32 8.5 W 54 91 29 49 1004.7 - 0.0
30/07:20pm 22.9 15.8 1.2 24 10.0 WNW 28 46 15 25 1003.0 - 0.0
30/07:00pm 23.0 16.3 1.4 24 10.0 WNW 26 43 14 23 1002.3 - 0.0
30/06:30pm 23.3 16.8 0.5 22 10.4 NW 24 37 13 20 1002.2 - 0.0
30/06:11pm 23.7 15.6 -0.2 20 10.8 WNW 32 48 17 26 1002.1 - 0.0
30/06:00pm 22.8 17.7 2.8 27 9.6 WNW 19 30 10 16 1002.1 1002.0 0.0
30/05:30pm 24.5 18.1 0.8 21 11.0 NNW 24 33 13 18 1001.4 - 0.0
30/05:00pm 25.7 19.6 0.2 19 11.8 NNW 22 39 12 21 1001.0 - 0.0
30/04:30pm 26.5 19.6 0.4 18 12.2 NW 26 35 14 19 1000.8 - 0.0
30/04:00pm 26.1 19.5 -0.1 18 12.1 NNW 24 39 13 21 1000.8 - 0.0
30/03:47pm 23.3 17.2 3.0 26 9.8 NNW 24 41 13 22 1000.9 - 0.0
30/03:30pm 18.1 12.8 14.3 78 2.2 NE 35 43 19 23 1000.9 - 0.0
30/03:00pm 18.5 13.3 14.4 77 2.4 NE 35 44 19 24 1001.4 1001.5 0.0
30/02:30pm 18.0 13.2 14.7 81 1.9 NE 33 43 18 23 1002.2 - 0.0
30/02:00pm 18.3 13.6 14.9 80 2.0 NE 33 39 18 21 1003.4 - 0.0
30/01:30pm 18.2 13.0 14.6 79 2.1 NE 35 41 19 22 1004.0 - 0.0
30/01:00pm 18.6 14.3 14.3 76 2.5 NE 30 35 16 19 1004.9 - 0.0
30/12:30pm 18.8 14.5 14.3 75 2.6 NE 30 35 16 19 1005.4 - 0.0
30/12:00pm 18.3 15.4 13.9 75 2.5 NE 22 26 12 14 1006.2 1006.2 0.0
30/11:30am 18.5 15.1 13.8 74 2.7 NE 24 26 13 14 1006.9 - 0.0
30/11:00am 18.6 16.0 13.7 73 2.8 NE 20 24 11 13 1007.7 - 0.0
30/10:30am 18.5 16.9 13.8 74 2.7 ENE 15 20 8 11 1008.3 - 0.0
30/10:00am 18.0 17.3 11.4 65 3.6 S 6 7 3 4 1008.8 - 0.0
30/09:30am 17.2 16.5 11.5 69 3.1 S 6 9 3 5 1009.2 - 0.0
30/09:00am 16.9 16.1 11.2 69 3.1 SW 6 9 3 5 1009.5 1009.5 0.0
30/08:30am 15.9 15.1 11.0 72 2.6 SSW 6 7 3 4 1009.9 - 0.0
30/08:00am 15.8 15.5 11.3 74 2.4 E 4 7 2 4 1010.1 - 0.0
30/07:30am 14.8 15.2 11.4 80 1.8 CALM 0 6 0 3 1010.3 - 0.0
30/07:00am 14.3 13.6 11.3 82 1.6 NNE 6 9 3 5 1010.4 - 0.0
30/06:30am 12.9 11.8 10.6 86 1.2 N 7 7 4 4 1010.7 - 0.0
30/06:00am 11.6 10.1 9.2 85 1.2 NNE 7 11 4 6 1010.4 1010.3 0.0
30/05:30am 11.6 10.4 9.6 87 1.0 WNW 6 9 3 5 1010.4 - 0.0
30/05:00am 11.0 8.7 9.0 87 1.0 W 11 11 6 6 1010.5 - 0.0
30/04:30am 12.3 11.0 9.3 82 1.5 NNW 6 11 3 6 1010.5 - 0.0
30/04:00am 12.8 11.4 8.8 76 2.0 NW 6 9 3 5 1010.8 - 0.0
30/03:30am 13.1 9.1 8.9 75 2.1 N 20 24 11 13 1010.6 - 0.0
30/03:00am 14.3 9.2 10.5 78 2.0 NNE 28 33 15 18 1010.6 1010.6 0.0

Other Formats:

Comma delimited format used in spreadsheet applications
http://www.bom.gov.au/fwo/IDN60801/IDN60801.94933.axf

JavaScript Object Notation format (JSON) in row-major order
http://www.bom.gov.au/fwo/IDN60801/IDN60801.94933.json